Tropical Cyclones
[Index]
Main Index Home Page Stock Weather Photos Extreme Storms Discussion Storm News and Storm Chasing Reports Tropical Cyclones / Hurricanes / Typhoons Weather Data and Links Wild Fires / Bushfires Weather Observation Techniques Weather Picture Catalogue Tornado Pictures and Reports Stock Video Footage and DVDs for sale
Season 1962-1963 Tropical Cyclone 196355 Track Map
Season 1962-1963 Summaries: [BoM-AU] [JTWC-AU] [JTWC-SIO] [JTWC-SPAC] [JTWC-SH]
<<- Previous TC | JTWC 1962-1963 Season | Next TC ->>

click for intensity scale information  Lat/long Grid: Show Hide

 Date Labels: Show Hide

Joint Typhoon Warning Centre Cyclone Data

Name: 196355
Number: 502 / 6355

23 Jun 1963 00:00 UTC to 03 Jul 1963 18:00 UTC

    date/time    lat    long     hPa   cat  kts
1963-06-23 00   19.1   159.3                  25          
1963-06-23 06   19.7   159.2                  25          
1963-06-23 12   20.3   159.0                  25          
1963-06-23 18   20.9   158.6                  25          
1963-06-24 00   21.4   158.4                  25          
1963-06-24 06   21.7   158.4                  25          
1963-06-24 12   22.1   158.4                  25          
1963-06-24 18   22.4   158.4                  25          
1963-06-25 00   22.9   158.4                  25          
1963-06-25 06   23.7   158.8                  20          
1963-06-25 12   24.4   159.6                  20          
1963-06-25 18   24.7   160.9                  25          
1963-06-26 00   25.2   162.2                  30          
1963-06-26 06   26.1   163.0                  30          
1963-06-26 12   26.9   163.4                  30          
1963-06-26 18   27.4   163.0                  20          
1963-06-27 00   27.9   162.9                  15          
1963-06-27 06   28.7   163.3                  20          
1963-06-27 12   29.5   163.6                  25          
1963-06-27 18   30.2   163.9                  20          
1963-06-28 00   30.7   164.0                  20          
1963-06-28 06   31.0   163.9                  25          
1963-06-28 12   31.1   163.5                  30          
1963-06-28 18   31.1   163.2                  30          
1963-06-29 00   31.0   162.7                  25          
1963-06-29 06   30.8   162.2                  20          
1963-06-29 12   30.4   161.7                  15          
1963-06-29 18   29.7   161.5                  20          
1963-06-30 00   29.0   161.4                  25          
1963-06-30 06   28.6   161.5                  20          
1963-06-30 12   28.5   161.8                  20          
1963-06-30 18   28.5   162.3                  15          
1963-07-01 00   28.8   163.2                  15          
1963-07-01 06   29.2   164.2                  15          
1963-07-01 12   29.6   165.2                  20          
1963-07-01 18   30.0   166.0                  30          
1963-07-02 00   30.5   166.7            1     40          
1963-07-02 06   31.0   167.2                  25          
1963-07-02 12   31.7   167.4                  15          
1963-07-02 18   32.7   167.6                  15          
1963-07-03 00   33.6   167.8                  20          
1963-07-03 06   34.5   168.1                  25          
1963-07-03 12   35.3   168.5                  35          
1963-07-03 18   36.1   168.8            1     50          
Winds are 1-min average.

Tropical cyclone tracks developed by Michael Bath using data from the Joint Typhoon Warning Centre Best Tracks and Google Maps.


[Australian Severe Weather index] [Copyright Notice] [Email Contacts] [Search This Site] [Privacy Policy]
Document: tropical_cyclone_196355.htm Updated: 18 September 2016